sensor_id;sensor_type;location;lat;lon;timestamp;P1;durP1;ratioP1;P2;durP2;ratioP2
2023;SDS011;1016;48.770;9.154;2023-05-07T00:01:04;19.87;;;3.67;;
2023;SDS011;1016;48.770;9.154;2023-05-07T00:03:31;20.13;;;3.90;;
2023;SDS011;1016;48.770;9.154;2023-05-07T00:05:57;19.27;;;3.27;;
2023;SDS011;1016;48.770;9.154;2023-05-07T00:08:23;20.00;;;3.30;;
2023;SDS011;1016;48.770;9.154;2023-05-07T00:10:48;20.40;;;3.30;;
2023;SDS011;1016;48.770;9.154;2023-05-07T00:13:14;20.57;;;3.80;;
2023;SDS011;1016;48.770;9.154;2023-05-07T00:15:40;27.33;;;10.00;;
2023;SDS011;1016;48.770;9.154;2023-05-07T00:18:05;21.30;;;4.57;;
2023;SDS011;1016;48.770;9.154;2023-05-07T00:20:31;21.20;;;4.00;;
2023;SDS011;1016;48.770;9.154;2023-05-07T00:22:56;23.77;;;3.93;;
2023;SDS011;1016;48.770;9.154;2023-05-07T00:25:22;20.70;;;4.07;;
2023;SDS011;1016;48.770;9.154;2023-05-07T00:27:47;22.30;;;4.53;;
2023;SDS011;1016;48.770;9.154;2023-05-07T00:30:13;20.53;;;4.13;;
2023;SDS011;1016;48.770;9.154;2023-05-07T00:32:39;22.57;;;4.57;;
2023;SDS011;1016;48.770;9.154;2023-05-07T00:35:05;20.87;;;4.80;;
2023;SDS011;1016;48.770;9.154;2023-05-07T00:37:31;22.37;;;5.30;;
2023;SDS011;1016;48.770;9.154;2023-05-07T00:39:56;21.93;;;4.40;;
2023;SDS011;1016;48.770;9.154;2023-05-07T00:42:22;22.67;;;4.93;;
2023;SDS011;1016;48.770;9.154;2023-05-07T00:44:48;21.80;;;5.30;;
2023;SDS011;1016;48.770;9.154;2023-05-07T00:47:16;22.90;;;5.73;;
2023;SDS011;1016;48.770;9.154;2023-05-07T00:49:42;22.13;;;5.03;;
2023;SDS011;1016;48.770;9.154;2023-05-07T00:52:09;22.80;;;5.37;;
2023;SDS011;1016;48.770;9.154;2023-05-07T00:54:38;21.50;;;4.83;;
2023;SDS011;1016;48.770;9.154;2023-05-07T00:57:05;21.70;;;5.17;;
2023;SDS011;1016;48.770;9.154;2023-05-07T00:59:31;21.63;;;5.33;;
2023;SDS011;1016;48.770;9.154;2023-05-07T01:01:58;20.77;;;5.00;;
2023;SDS011;1016;48.770;9.154;2023-05-07T01:04:23;22.37;;;5.67;;
2023;SDS011;1016;48.770;9.154;2023-05-07T01:06:49;21.70;;;4.97;;
2023;SDS011;1016;48.770;9.154;2023-05-07T01:09:15;22.40;;;5.30;;
2023;SDS011;1016;48.770;9.154;2023-05-07T01:11:41;22.80;;;5.67;;
2023;SDS011;1016;48.770;9.154;2023-05-07T01:14:07;24.17;;;5.70;;
2023;SDS011;1016;48.770;9.154;2023-05-07T01:16:34;23.40;;;5.57;;
2023;SDS011;1016;48.770;9.154;2023-05-07T01:19:00;23.63;;;5.97;;
2023;SDS011;1016;48.770;9.154;2023-05-07T01:21:26;22.10;;;5.70;;
2023;SDS011;1016;48.770;9.154;2023-05-07T01:23:52;22.87;;;5.90;;
2023;SDS011;1016;48.770;9.154;2023-05-07T01:26:19;21.37;;;5.57;;
2023;SDS011;1016;48.770;9.154;2023-05-07T01:28:45;21.60;;;5.70;;
2023;SDS011;1016;48.770;9.154;2023-05-07T01:31:11;22.87;;;5.70;;
2023;SDS011;1016;48.770;9.154;2023-05-07T01:33:38;22.17;;;6.53;;
2023;SDS011;1016;48.770;9.154;2023-05-07T01:36:07;23.60;;;6.27;;
2023;SDS011;1016;48.770;9.154;2023-05-07T01:38:36;24.10;;;6.20;;
2023;SDS011;1016;48.770;9.154;2023-05-07T01:41:02;25.13;;;6.53;;
2023;SDS011;1016;48.770;9.154;2023-05-07T01:43:28;24.20;;;6.07;;
2023;SDS011;1016;48.770;9.154;2023-05-07T01:45:55;22.97;;;6.70;;
2023;SDS011;1016;48.770;9.154;2023-05-07T01:48:22;21.93;;;6.17;;
2023;SDS011;1016;48.770;9.154;2023-05-07T01:50:49;23.07;;;5.90;;
2023;SDS011;1016;48.770;9.154;2023-05-07T01:53:14;22.60;;;5.80;;
2023;SDS011;1016;48.770;9.154;2023-05-07T01:55:40;22.93;;;6.13;;
2023;SDS011;1016;48.770;9.154;2023-05-07T01:58:06;21.77;;;5.43;;
2023;SDS011;1016;48.770;9.154;2023-05-07T02:00:31;22.00;;;5.67;;
2023;SDS011;1016;48.770;9.154;2023-05-07T02:02:57;21.73;;;5.20;;
2023;SDS011;1016;48.770;9.154;2023-05-07T02:05:23;21.70;;;5.87;;
2023;SDS011;1016;48.770;9.154;2023-05-07T02:07:49;21.97;;;5.47;;
2023;SDS011;1016;48.770;9.154;2023-05-07T02:10:14;24.90;;;5.67;;
2023;SDS011;1016;48.770;9.154;2023-05-07T02:12:40;22.67;;;5.80;;
2023;SDS011;1016;48.770;9.154;2023-05-07T02:15:06;21.60;;;5.70;;
2023;SDS011;1016;48.770;9.154;2023-05-07T02:17:31;23.77;;;5.77;;
2023;SDS011;1016;48.770;9.154;2023-05-07T02:19:58;22.80;;;6.27;;
2023;SDS011;1016;48.770;9.154;2023-05-07T02:22:23;21.97;;;6.00;;
2023;SDS011;1016;48.770;9.154;2023-05-07T02:24:50;22.33;;;5.67;;
2023;SDS011;1016;48.770;9.154;2023-05-07T02:27:15;22.30;;;5.97;;
2023;SDS011;1016;48.770;9.154;2023-05-07T02:29:41;22.67;;;5.77;;
2023;SDS011;1016;48.770;9.154;2023-05-07T02:32:06;21.70;;;5.83;;
2023;SDS011;1016;48.770;9.154;2023-05-07T02:34:32;23.00;;;6.03;;
2023;SDS011;1016;48.770;9.154;2023-05-07T02:36:57;22.60;;;5.90;;
2023;SDS011;1016;48.770;9.154;2023-05-07T02:39:23;22.90;;;5.97;;
2023;SDS011;1016;48.770;9.154;2023-05-07T02:41:48;23.27;;;6.37;;
2023;SDS011;1016;48.770;9.154;2023-05-07T02:44:13;21.60;;;5.50;;
2023;SDS011;1016;48.770;9.154;2023-05-07T02:46:39;21.93;;;5.10;;
2023;SDS011;1016;48.770;9.154;2023-05-07T02:49:05;24.03;;;6.57;;
2023;SDS011;1016;48.770;9.154;2023-05-07T02:51:30;22.77;;;5.50;;
2023;SDS011;1016;48.770;9.154;2023-05-07T02:53:56;21.83;;;5.23;;
2023;SDS011;1016;48.770;9.154;2023-05-07T02:56:22;24.20;;;5.70;;
2023;SDS011;1016;48.770;9.154;2023-05-07T02:58:47;21.90;;;5.43;;
2023;SDS011;1016;48.770;9.154;2023-05-07T03:01:13;23.30;;;5.80;;
2023;SDS011;1016;48.770;9.154;2023-05-07T03:03:39;23.10;;;5.33;;
2023;SDS011;1016;48.770;9.154;2023-05-07T03:06:05;22.47;;;6.03;;
2023;SDS011;1016;48.770;9.154;2023-05-07T03:08:31;22.77;;;5.60;;
2023;SDS011;1016;48.770;9.154;2023-05-07T03:10:57;23.43;;;5.50;;
2023;SDS011;1016;48.770;9.154;2023-05-07T03:13:23;22.97;;;5.50;;
2023;SDS011;1016;48.770;9.154;2023-05-07T03:15:48;24.97;;;5.53;;
2023;SDS011;1016;48.770;9.154;2023-05-07T03:18:14;23.40;;;6.17;;
2023;SDS011;1016;48.770;9.154;2023-05-07T03:20:39;21.93;;;5.23;;
2023;SDS011;1016;48.770;9.154;2023-05-07T03:23:05;22.00;;;5.73;;
2023;SDS011;1016;48.770;9.154;2023-05-07T03:25:31;22.90;;;5.93;;
2023;SDS011;1016;48.770;9.154;2023-05-07T03:27:57;24.80;;;5.67;;
2023;SDS011;1016;48.770;9.154;2023-05-07T03:30:22;22.20;;;4.87;;
2023;SDS011;1016;48.770;9.154;2023-05-07T03:32:48;21.60;;;4.90;;
2023;SDS011;1016;48.770;9.154;2023-05-07T03:35:13;21.83;;;5.33;;
2023;SDS011;1016;48.770;9.154;2023-05-07T03:37:39;22.33;;;5.10;;
2023;SDS011;1016;48.770;9.154;2023-05-07T03:40:05;21.07;;;5.00;;
2023;SDS011;1016;48.770;9.154;2023-05-07T03:42:31;22.33;;;4.83;;
2023;SDS011;1016;48.770;9.154;2023-05-07T03:44:57;21.70;;;5.23;;
2023;SDS011;1016;48.770;9.154;2023-05-07T03:47:22;21.37;;;4.80;;
2023;SDS011;1016;48.770;9.154;2023-05-07T03:49:48;22.00;;;5.53;;
2023;SDS011;1016;48.770;9.154;2023-05-07T03:52:14;22.00;;;5.03;;
2023;SDS011;1016;48.770;9.154;2023-05-07T03:54:40;22.00;;;5.10;;
2023;SDS011;1016;48.770;9.154;2023-05-07T03:57:05;21.73;;;5.23;;
2023;SDS011;1016;48.770;9.154;2023-05-07T03:59:31;21.00;;;5.10;;
2023;SDS011;1016;48.770;9.154;2023-05-07T04:01:56;22.27;;;5.60;;
2023;SDS011;1016;48.770;9.154;2023-05-07T04:04:23;21.73;;;5.17;;
2023;SDS011;1016;48.770;9.154;2023-05-07T04:06:48;21.97;;;4.80;;
2023;SDS011;1016;48.770;9.154;2023-05-07T04:09:14;21.53;;;5.17;;
2023;SDS011;1016;48.770;9.154;2023-05-07T04:11:39;21.87;;;5.20;;
2023;SDS011;1016;48.770;9.154;2023-05-07T04:14:05;22.37;;;5.30;;
2023;SDS011;1016;48.770;9.154;2023-05-07T04:16:31;21.10;;;4.77;;
2023;SDS011;1016;48.770;9.154;2023-05-07T04:18:56;21.50;;;4.77;;
2023;SDS011;1016;48.770;9.154;2023-05-07T04:21:22;22.83;;;4.90;;
2023;SDS011;1016;48.770;9.154;2023-05-07T04:23:47;23.60;;;4.83;;
2023;SDS011;1016;48.770;9.154;2023-05-07T04:26:14;20.83;;;4.23;;
2023;SDS011;1016;48.770;9.154;2023-05-07T04:28:40;23.73;;;4.83;;
2023;SDS011;1016;48.770;9.154;2023-05-07T04:31:05;20.40;;;4.20;;
2023;SDS011;1016;48.770;9.154;2023-05-07T04:33:31;20.20;;;4.30;;
2023;SDS011;1016;48.770;9.154;2023-05-07T04:35:58;21.70;;;4.30;;
2023;SDS011;1016;48.770;9.154;2023-05-07T04:38:28;20.30;;;4.10;;
2023;SDS011;1016;48.770;9.154;2023-05-07T04:40:54;20.87;;;4.13;;
2023;SDS011;1016;48.770;9.154;2023-05-07T04:43:21;20.90;;;4.20;;
2023;SDS011;1016;48.770;9.154;2023-05-07T04:45:46;20.90;;;4.13;;
2023;SDS011;1016;48.770;9.154;2023-05-07T04:48:12;20.90;;;4.47;;
2023;SDS011;1016;48.770;9.154;2023-05-07T04:50:39;22.07;;;4.40;;
2023;SDS011;1016;48.770;9.154;2023-05-07T04:53:05;23.57;;;4.10;;
2023;SDS011;1016;48.770;9.154;2023-05-07T04:55:31;20.47;;;4.20;;
2023;SDS011;1016;48.770;9.154;2023-05-07T04:57:56;20.67;;;4.10;;
2023;SDS011;1016;48.770;9.154;2023-05-07T05:00:22;20.70;;;4.20;;
2023;SDS011;1016;48.770;9.154;2023-05-07T05:02:47;22.03;;;3.93;;
2023;SDS011;1016;48.770;9.154;2023-05-07T05:05:13;21.10;;;4.20;;
2023;SDS011;1016;48.770;9.154;2023-05-07T05:07:38;20.67;;;4.10;;
2023;SDS011;1016;48.770;9.154;2023-05-07T05:10:04;21.03;;;4.67;;
2023;SDS011;1016;48.770;9.154;2023-05-07T05:12:30;22.30;;;4.80;;
2023;SDS011;1016;48.770;9.154;2023-05-07T05:14:56;20.90;;;4.80;;
2023;SDS011;1016;48.770;9.154;2023-05-07T05:17:22;20.80;;;5.03;;
2023;SDS011;1016;48.770;9.154;2023-05-07T05:19:47;22.27;;;4.60;;
2023;SDS011;1016;48.770;9.154;2023-05-07T05:22:12;21.60;;;5.00;;
2023;SDS011;1016;48.770;9.154;2023-05-07T05:24:38;21.20;;;4.67;;
2023;SDS011;1016;48.770;9.154;2023-05-07T05:27:04;20.77;;;4.80;;
2023;SDS011;1016;48.770;9.154;2023-05-07T05:29:29;23.77;;;4.87;;
2023;SDS011;1016;48.770;9.154;2023-05-07T05:31:56;21.80;;;5.37;;
2023;SDS011;1016;48.770;9.154;2023-05-07T05:34:22;21.90;;;5.00;;
2023;SDS011;1016;48.770;9.154;2023-05-07T05:36:47;21.00;;;5.10;;
2023;SDS011;1016;48.770;9.154;2023-05-07T05:39:13;21.63;;;5.30;;
2023;SDS011;1016;48.770;9.154;2023-05-07T05:41:39;23.50;;;6.07;;
2023;SDS011;1016;48.770;9.154;2023-05-07T05:44:04;21.63;;;5.60;;
2023;SDS011;1016;48.770;9.154;2023-05-07T05:46:30;22.60;;;5.77;;
2023;SDS011;1016;48.770;9.154;2023-05-07T05:48:56;22.53;;;6.23;;
2023;SDS011;1016;48.770;9.154;2023-05-07T05:51:21;24.00;;;5.30;;
2023;SDS011;1016;48.770;9.154;2023-05-07T05:53:48;22.77;;;5.43;;
2023;SDS011;1016;48.770;9.154;2023-05-07T05:56:13;23.07;;;5.67;;
2023;SDS011;1016;48.770;9.154;2023-05-07T05:58:40;21.40;;;4.57;;
2023;SDS011;1016;48.770;9.154;2023-05-07T06:01:06;21.13;;;4.67;;
2023;SDS011;1016;48.770;9.154;2023-05-07T06:03:31;22.27;;;4.93;;
2023;SDS011;1016;48.770;9.154;2023-05-07T06:05:59;24.10;;;5.30;;
2023;SDS011;1016;48.770;9.154;2023-05-07T06:08:25;20.87;;;4.90;;
2023;SDS011;1016;48.770;9.154;2023-05-07T06:10:53;22.00;;;5.40;;
2023;SDS011;1016;48.770;9.154;2023-05-07T06:13:19;23.40;;;5.03;;
2023;SDS011;1016;48.770;9.154;2023-05-07T06:15:44;22.87;;;5.40;;
2023;SDS011;1016;48.770;9.154;2023-05-07T06:18:10;23.33;;;5.47;;
2023;SDS011;1016;48.770;9.154;2023-05-07T06:20:35;22.10;;;5.27;;
2023;SDS011;1016;48.770;9.154;2023-05-07T06:23:01;20.43;;;4.83;;
2023;SDS011;1016;48.770;9.154;2023-05-07T06:25:27;21.47;;;5.00;;
2023;SDS011;1016;48.770;9.154;2023-05-07T06:27:52;22.53;;;4.97;;
2023;SDS011;1016;48.770;9.154;2023-05-07T06:30:17;21.70;;;5.10;;
2023;SDS011;1016;48.770;9.154;2023-05-07T06:32:43;21.20;;;5.27;;
2023;SDS011;1016;48.770;9.154;2023-05-07T06:35:09;21.23;;;4.67;;
2023;SDS011;1016;48.770;9.154;2023-05-07T06:37:34;21.63;;;5.03;;
2023;SDS011;1016;48.770;9.154;2023-05-07T06:40:00;21.93;;;5.33;;
2023;SDS011;1016;48.770;9.154;2023-05-07T06:42:25;23.40;;;5.57;;
2023;SDS011;1016;48.770;9.154;2023-05-07T06:44:51;22.73;;;5.30;;
2023;SDS011;1016;48.770;9.154;2023-05-07T06:47:17;21.57;;;5.07;;
2023;SDS011;1016;48.770;9.154;2023-05-07T06:49:42;23.97;;;5.10;;
2023;SDS011;1016;48.770;9.154;2023-05-07T06:52:08;23.23;;;4.77;;
2023;SDS011;1016;48.770;9.154;2023-05-07T06:54:33;22.30;;;5.60;;
2023;SDS011;1016;48.770;9.154;2023-05-07T06:56:59;21.50;;;5.43;;
2023;SDS011;1016;48.770;9.154;2023-05-07T06:59:25;22.47;;;5.20;;
2023;SDS011;1016;48.770;9.154;2023-05-07T07:01:51;24.07;;;5.00;;
2023;SDS011;1016;48.770;9.154;2023-05-07T07:04:16;24.53;;;5.33;;
2023;SDS011;1016;48.770;9.154;2023-05-07T07:06:42;22.83;;;5.50;;
2023;SDS011;1016;48.770;9.154;2023-05-07T07:09:07;22.63;;;5.10;;
2023;SDS011;1016;48.770;9.154;2023-05-07T07:11:33;24.13;;;5.60;;
2023;SDS011;1016;48.770;9.154;2023-05-07T07:13:58;22.83;;;5.67;;
2023;SDS011;1016;48.770;9.154;2023-05-07T07:16:24;22.47;;;5.03;;
2023;SDS011;1016;48.770;9.154;2023-05-07T07:18:49;21.90;;;5.70;;
2023;SDS011;1016;48.770;9.154;2023-05-07T07:21:15;22.33;;;5.37;;
2023;SDS011;1016;48.770;9.154;2023-05-07T07:23:41;23.93;;;5.70;;
2023;SDS011;1016;48.770;9.154;2023-05-07T07:26:06;23.77;;;4.93;;
2023;SDS011;1016;48.770;9.154;2023-05-07T07:28:32;22.30;;;5.80;;
2023;SDS011;1016;48.770;9.154;2023-05-07T07:30:57;22.03;;;4.93;;
2023;SDS011;1016;48.770;9.154;2023-05-07T07:33:23;26.33;;;5.60;;
2023;SDS011;1016;48.770;9.154;2023-05-07T07:35:48;22.40;;;5.00;;
2023;SDS011;1016;48.770;9.154;2023-05-07T07:38:14;21.50;;;5.30;;
2023;SDS011;1016;48.770;9.154;2023-05-07T07:40:40;22.15;;;4.90;;
2023;SDS011;1016;48.770;9.154;2023-05-07T07:43:05;22.20;;;4.90;;
2023;SDS011;1016;48.770;9.154;2023-05-07T07:45:31;24.47;;;5.20;;
2023;SDS011;1016;48.770;9.154;2023-05-07T07:47:56;21.80;;;4.70;;
2023;SDS011;1016;48.770;9.154;2023-05-07T07:50:22;21.40;;;4.70;;
2023;SDS011;1016;48.770;9.154;2023-05-07T07:52:48;22.40;;;3.97;;
2023;SDS011;1016;48.770;9.154;2023-05-07T07:55:13;21.57;;;5.00;;
2023;SDS011;1016;48.770;9.154;2023-05-07T07:57:42;21.07;;;4.40;;
2023;SDS011;1016;48.770;9.154;2023-05-07T08:00:08;21.23;;;3.53;;
2023;SDS011;1016;48.770;9.154;2023-05-07T08:02:34;19.67;;;3.60;;
2023;SDS011;1016;48.770;9.154;2023-05-07T08:04:59;21.90;;;3.80;;
2023;SDS011;1016;48.770;9.154;2023-05-07T08:07:25;22.37;;;4.40;;
2023;SDS011;1016;48.770;9.154;2023-05-07T08:09:50;23.73;;;4.00;;
2023;SDS011;1016;48.770;9.154;2023-05-07T08:12:16;21.57;;;4.30;;
2023;SDS011;1016;48.770;9.154;2023-05-07T08:14:42;20.50;;;4.27;;
2023;SDS011;1016;48.770;9.154;2023-05-07T08:17:07;20.50;;;4.00;;
2023;SDS011;1016;48.770;9.154;2023-05-07T08:19:34;20.87;;;4.00;;
2023;SDS011;1016;48.770;9.154;2023-05-07T08:22:00;20.53;;;3.60;;
2023;SDS011;1016;48.770;9.154;2023-05-07T08:24:25;21.40;;;3.40;;
2023;SDS011;1016;48.770;9.154;2023-05-07T08:26:51;20.37;;;4.00;;
2023;SDS011;1016;48.770;9.154;2023-05-07T08:29:16;23.60;;;4.43;;
2023;SDS011;1016;48.770;9.154;2023-05-07T08:31:42;21.50;;;4.67;;
2023;SDS011;1016;48.770;9.154;2023-05-07T08:34:07;26.77;;;4.77;;
2023;SDS011;1016;48.770;9.154;2023-05-07T08:36:33;19.80;;;3.50;;
2023;SDS011;1016;48.770;9.154;2023-05-07T08:38:59;20.40;;;3.40;;
2023;SDS011;1016;48.770;9.154;2023-05-07T08:41:25;20.07;;;3.27;;
2023;SDS011;1016;48.770;9.154;2023-05-07T08:43:50;20.37;;;3.20;;
2023;SDS011;1016;48.770;9.154;2023-05-07T08:46:17;20.10;;;3.23;;
2023;SDS011;1016;48.770;9.154;2023-05-07T08:48:50;21.23;;;3.37;;
2023;SDS011;1016;48.770;9.154;2023-05-07T08:51:17;20.20;;;3.57;;
2023;SDS011;1016;48.770;9.154;2023-05-07T08:53:45;19.90;;;3.37;;
2023;SDS011;1016;48.770;9.154;2023-05-07T08:56:13;20.27;;;3.00;;
2023;SDS011;1016;48.770;9.154;2023-05-07T08:58:40;20.73;;;3.20;;
2023;SDS011;1016;48.770;9.154;2023-05-07T09:01:10;20.17;;;3.23;;
2023;SDS011;1016;48.770;9.154;2023-05-07T09:03:39;22.20;;;3.80;;
2023;SDS011;1016;48.770;9.154;2023-05-07T09:06:05;19.93;;;3.57;;
2023;SDS011;1016;48.770;9.154;2023-05-07T09:08:32;19.67;;;3.40;;
2023;SDS011;1016;48.770;9.154;2023-05-07T09:10:58;21.73;;;3.30;;
2023;SDS011;1016;48.770;9.154;2023-05-07T09:13:24;20.43;;;3.30;;
2023;SDS011;1016;48.770;9.154;2023-05-07T09:15:50;19.83;;;3.37;;
2023;SDS011;1016;48.770;9.154;2023-05-07T09:18:15;20.10;;;2.87;;
2023;SDS011;1016;48.770;9.154;2023-05-07T09:20:41;19.67;;;2.80;;
2023;SDS011;1016;48.770;9.154;2023-05-07T09:23:07;19.90;;;2.80;;
2023;SDS011;1016;48.770;9.154;2023-05-07T09:25:34;21.87;;;3.53;;
2023;SDS011;1016;48.770;9.154;2023-05-07T09:28:00;20.37;;;3.00;;
2023;SDS011;1016;48.770;9.154;2023-05-07T09:30:27;20.20;;;3.10;;
2023;SDS011;1016;48.770;9.154;2023-05-07T09:32:54;20.50;;;3.00;;
2023;SDS011;1016;48.770;9.154;2023-05-07T09:35:20;19.30;;;2.73;;
2023;SDS011;1016;48.770;9.154;2023-05-07T09:37:52;19.17;;;2.80;;
2023;SDS011;1016;48.770;9.154;2023-05-07T09:40:22;20.10;;;3.17;;
2023;SDS011;1016;48.770;9.154;2023-05-07T09:42:49;19.20;;;2.70;;
2023;SDS011;1016;48.770;9.154;2023-05-07T09:45:16;20.20;;;3.03;;
2023;SDS011;1016;48.770;9.154;2023-05-07T09:47:50;20.10;;;2.60;;
2023;SDS011;1016;48.770;9.154;2023-05-07T09:50:25;20.40;;;2.77;;
2023;SDS011;1016;48.770;9.154;2023-05-07T09:52:57;20.00;;;2.50;;
2023;SDS011;1016;48.770;9.154;2023-05-07T09:55:23;20.60;;;3.17;;
2023;SDS011;1016;48.770;9.154;2023-05-07T09:57:52;20.27;;;3.10;;
2023;SDS011;1016;48.770;9.154;2023-05-07T10:00:19;19.90;;;2.93;;
2023;SDS011;1016;48.770;9.154;2023-05-07T10:02:51;19.83;;;2.47;;
2023;SDS011;1016;48.770;9.154;2023-05-07T10:05:21;19.80;;;2.83;;
2023;SDS011;1016;48.770;9.154;2023-05-07T10:07:47;19.67;;;2.80;;
2023;SDS011;1016;48.770;9.154;2023-05-07T10:10:13;23.70;;;3.00;;
2023;SDS011;1016;48.770;9.154;2023-05-07T10:12:40;20.57;;;2.83;;
2023;SDS011;1016;48.770;9.154;2023-05-07T10:15:06;20.90;;;2.90;;
2023;SDS011;1016;48.770;9.154;2023-05-07T10:17:36;20.03;;;2.90;;
2023;SDS011;1016;48.770;9.154;2023-05-07T10:20:03;20.00;;;2.80;;
2023;SDS011;1016;48.770;9.154;2023-05-07T10:22:37;20.20;;;2.60;;
2023;SDS011;1016;48.770;9.154;2023-05-07T10:25:06;20.90;;;2.93;;
2023;SDS011;1016;48.770;9.154;2023-05-07T10:27:43;22.30;;;3.27;;
2023;SDS011;1016;48.770;9.154;2023-05-07T10:32:43;19.90;;;2.90;;
2023;SDS011;1016;48.770;9.154;2023-05-07T10:35:25;21.17;;;2.83;;
2023;SDS011;1016;48.770;9.154;2023-05-07T10:37:54;20.90;;;2.97;;
2023;SDS011;1016;48.770;9.154;2023-05-07T10:40:20;19.80;;;2.67;;
2023;SDS011;1016;48.770;9.154;2023-05-07T10:45:23;19.43;;;2.40;;
2023;SDS011;1016;48.770;9.154;2023-05-07T10:50:36;20.07;;;2.80;;
2023;SDS011;1016;48.770;9.154;2023-05-07T10:55:50;20.20;;;2.73;;
2023;SDS011;1016;48.770;9.154;2023-05-07T10:58:27;20.30;;;3.13;;
2023;SDS011;1016;48.770;9.154;2023-05-07T11:03:27;21.00;;;2.70;;
2023;SDS011;1016;48.770;9.154;2023-05-07T11:06:13;19.90;;;2.77;;
2023;SDS011;1016;48.770;9.154;2023-05-07T11:11:18;19.00;;;2.50;;
2023;SDS011;1016;48.770;9.154;2023-05-07T11:13:45;19.37;;;2.60;;
2023;SDS011;1016;48.770;9.154;2023-05-07T11:16:18;20.13;;;2.80;;
2023;SDS011;1016;48.770;9.154;2023-05-07T11:18:46;19.03;;;2.63;;
2023;SDS011;1016;48.770;9.154;2023-05-07T11:21:13;21.10;;;2.90;;
2023;SDS011;1016;48.770;9.154;2023-05-07T11:23:56;20.37;;;3.10;;
2023;SDS011;1016;48.770;9.154;2023-05-07T11:26:22;21.20;;;3.07;;
2023;SDS011;1016;48.770;9.154;2023-05-07T11:28:48;20.73;;;2.80;;
2023;SDS011;1016;48.770;9.154;2023-05-07T11:31:15;20.70;;;2.93;;
2023;SDS011;1016;48.770;9.154;2023-05-07T11:33:47;20.47;;;3.00;;
2023;SDS011;1016;48.770;9.154;2023-05-07T11:36:13;19.70;;;2.97;;
2023;SDS011;1016;48.770;9.154;2023-05-07T11:38:38;21.10;;;2.70;;
2023;SDS011;1016;48.770;9.154;2023-05-07T11:41:04;20.50;;;2.60;;
2023;SDS011;1016;48.770;9.154;2023-05-07T11:43:30;20.83;;;2.73;;
2023;SDS011;1016;48.770;9.154;2023-05-07T11:46:04;20.07;;;2.77;;
2023;SDS011;1016;48.770;9.154;2023-05-07T11:48:32;20.17;;;2.93;;
2023;SDS011;1016;48.770;9.154;2023-05-07T11:53:27;19.80;;;2.47;;
2023;SDS011;1016;48.770;9.154;2023-05-07T11:56:00;20.53;;;3.00;;
2023;SDS011;1016;48.770;9.154;2023-05-07T11:58:30;20.63;;;3.00;;
2023;SDS011;1016;48.770;9.154;2023-05-07T12:00:56;19.70;;;3.27;;
2023;SDS011;1016;48.770;9.154;2023-05-07T12:03:22;20.40;;;3.17;;
2023;SDS011;1016;48.770;9.154;2023-05-07T12:05:47;20.50;;;3.43;;
2023;SDS011;1016;48.770;9.154;2023-05-07T12:08:20;24.70;;;3.70;;
2023;SDS011;1016;48.770;9.154;2023-05-07T12:10:47;20.93;;;4.07;;
2023;SDS011;1016;48.770;9.154;2023-05-07T12:13:17;21.50;;;4.60;;
2023;SDS011;1016;48.770;9.154;2023-05-07T12:15:44;26.23;;;3.77;;
2023;SDS011;1016;48.770;9.154;2023-05-07T12:18:10;29.50;;;5.77;;
2023;SDS011;1016;48.770;9.154;2023-05-07T12:20:37;24.87;;;3.57;;
2023;SDS011;1016;48.770;9.154;2023-05-07T12:23:03;24.50;;;2.70;;
2023;SDS011;1016;48.770;9.154;2023-05-07T12:25:35;25.00;;;4.00;;
2023;SDS011;1016;48.770;9.154;2023-05-07T12:28:02;27.50;;;4.63;;
2023;SDS011;1016;48.770;9.154;2023-05-07T12:30:29;24.77;;;5.10;;
2023;SDS011;1016;48.770;9.154;2023-05-07T12:32:56;23.30;;;4.73;;
2023;SDS011;1016;48.770;9.154;2023-05-07T12:35:41;25.57;;;6.33;;
2023;SDS011;1016;48.770;9.154;2023-05-07T12:38:07;23.40;;;5.30;;
2023;SDS011;1016;48.770;9.154;2023-05-07T12:40:35;24.87;;;4.50;;
2023;SDS011;1016;48.770;9.154;2023-05-07T12:43:17;25.10;;;5.73;;
2023;SDS011;1016;48.770;9.154;2023-05-07T12:45:44;23.87;;;4.50;;
2023;SDS011;1016;48.770;9.154;2023-05-07T12:48:11;20.93;;;2.87;;
2023;SDS011;1016;48.770;9.154;2023-05-07T12:50:37;25.27;;;4.63;;
2023;SDS011;1016;48.770;9.154;2023-05-07T12:53:03;32.77;;;4.80;;
2023;SDS011;1016;48.770;9.154;2023-05-07T12:55:31;28.70;;;4.93;;
2023;SDS011;1016;48.770;9.154;2023-05-07T12:58:00;24.20;;;4.10;;
2023;SDS011;1016;48.770;9.154;2023-05-07T13:00:36;23.90;;;3.30;;
2023;SDS011;1016;48.770;9.154;2023-05-07T13:03:02;25.03;;;3.17;;
2023;SDS011;1016;48.770;9.154;2023-05-07T13:05:28;22.43;;;2.50;;
2023;SDS011;1016;48.770;9.154;2023-05-07T13:07:54;23.87;;;3.40;;
2023;SDS011;1016;48.770;9.154;2023-05-07T13:10:21;21.23;;;3.07;;
2023;SDS011;1016;48.770;9.154;2023-05-07T13:12:47;19.80;;;2.50;;
2023;SDS011;1016;48.770;9.154;2023-05-07T13:15:13;20.37;;;2.10;;
2023;SDS011;1016;48.770;9.154;2023-05-07T13:17:38;20.67;;;2.30;;
2023;SDS011;1016;48.770;9.154;2023-05-07T13:20:04;19.57;;;2.27;;
2023;SDS011;1016;48.770;9.154;2023-05-07T13:22:30;19.70;;;2.30;;
2023;SDS011;1016;48.770;9.154;2023-05-07T13:24:56;23.57;;;2.27;;
2023;SDS011;1016;48.770;9.154;2023-05-07T13:27:22;19.30;;;2.40;;
2023;SDS011;1016;48.770;9.154;2023-05-07T13:29:47;19.57;;;2.30;;
2023;SDS011;1016;48.770;9.154;2023-05-07T13:32:13;22.13;;;2.60;;
2023;SDS011;1016;48.770;9.154;2023-05-07T13:34:38;19.63;;;2.00;;
2023;SDS011;1016;48.770;9.154;2023-05-07T13:37:04;19.87;;;2.30;;
2023;SDS011;1016;48.770;9.154;2023-05-07T13:39:29;19.90;;;2.20;;
2023;SDS011;1016;48.770;9.154;2023-05-07T13:41:55;19.77;;;2.50;;
2023;SDS011;1016;48.770;9.154;2023-05-07T13:44:20;18.03;;;2.03;;
2023;SDS011;1016;48.770;9.154;2023-05-07T13:46:46;18.33;;;2.27;;
2023;SDS011;1016;48.770;9.154;2023-05-07T13:49:11;18.50;;;2.27;;
2023;SDS011;1016;48.770;9.154;2023-05-07T13:51:37;20.17;;;2.40;;
2023;SDS011;1016;48.770;9.154;2023-05-07T13:54:03;18.37;;;2.27;;
2023;SDS011;1016;48.770;9.154;2023-05-07T13:56:29;19.30;;;2.87;;
2023;SDS011;1016;48.770;9.154;2023-05-07T13:58:57;20.37;;;3.10;;
2023;SDS011;1016;48.770;9.154;2023-05-07T14:01:22;18.37;;;2.20;;
2023;SDS011;1016;48.770;9.154;2023-05-07T14:03:48;20.27;;;2.30;;
2023;SDS011;1016;48.770;9.154;2023-05-07T14:06:13;18.13;;;2.10;;
2023;SDS011;1016;48.770;9.154;2023-05-07T14:08:39;19.70;;;2.10;;
2023;SDS011;1016;48.770;9.154;2023-05-07T14:11:05;20.30;;;2.20;;
2023;SDS011;1016;48.770;9.154;2023-05-07T14:13:30;19.40;;;2.50;;
2023;SDS011;1016;48.770;9.154;2023-05-07T14:15:56;20.83;;;2.90;;
2023;SDS011;1016;48.770;9.154;2023-05-07T14:18:22;20.27;;;2.60;;
2023;SDS011;1016;48.770;9.154;2023-05-07T14:20:48;20.33;;;2.83;;
2023;SDS011;1016;48.770;9.154;2023-05-07T14:23:13;18.30;;;2.53;;
2023;SDS011;1016;48.770;9.154;2023-05-07T14:25:39;20.50;;;3.20;;
2023;SDS011;1016;48.770;9.154;2023-05-07T14:28:06;20.00;;;3.33;;
2023;SDS011;1016;48.770;9.154;2023-05-07T14:30:31;20.10;;;3.20;;
2023;SDS011;1016;48.770;9.154;2023-05-07T14:32:57;19.13;;;3.30;;
2023;SDS011;1016;48.770;9.154;2023-05-07T14:35:22;19.37;;;2.87;;
2023;SDS011;1016;48.770;9.154;2023-05-07T14:37:48;20.97;;;3.77;;
2023;SDS011;1016;48.770;9.154;2023-05-07T14:40:13;22.60;;;3.20;;
2023;SDS011;1016;48.770;9.154;2023-05-07T14:42:39;20.67;;;2.90;;
2023;SDS011;1016;48.770;9.154;2023-05-07T14:45:05;19.93;;;3.00;;
2023;SDS011;1016;48.770;9.154;2023-05-07T14:47:31;19.57;;;3.17;;
2023;SDS011;1016;48.770;9.154;2023-05-07T14:49:56;21.47;;;3.10;;
2023;SDS011;1016;48.770;9.154;2023-05-07T14:52:23;19.40;;;2.90;;
2023;SDS011;1016;48.770;9.154;2023-05-07T14:54:48;19.40;;;2.60;;
2023;SDS011;1016;48.770;9.154;2023-05-07T14:57:14;19.83;;;2.50;;
2023;SDS011;1016;48.770;9.154;2023-05-07T14:59:41;20.17;;;3.17;;
2023;SDS011;1016;48.770;9.154;2023-05-07T15:02:07;18.20;;;2.63;;
2023;SDS011;1016;48.770;9.154;2023-05-07T15:04:34;18.83;;;2.50;;
2023;SDS011;1016;48.770;9.154;2023-05-07T15:06:59;19.40;;;2.60;;
2023;SDS011;1016;48.770;9.154;2023-05-07T15:09:25;18.10;;;2.30;;
2023;SDS011;1016;48.770;9.154;2023-05-07T15:11:51;18.60;;;2.50;;
2023;SDS011;1016;48.770;9.154;2023-05-07T15:14:17;20.37;;;2.57;;